Time;durP1;ratioP1;P1;durP2;ratioP2;P2;SDS_P1;SDS_P2;PMS_P1;PMS_P2;Temp;Humidity;BMP_temperature;BMP_pressure;BME280_temperature;BME280_humidity;BME280_pressure;Samples;Min_cycle;Max_cycle;Signal;HPM_P1;HPM_P2
2022/12/25 00:01:58;;;;;;;357.77;240.95;;;205.00;2252.80;;;;;;4967224;28;20038;-85
2022/12/25 00:04:24;;;;;;;333.75;220.98;;;205.00;2252.80;;;;;;4960328;28;20039;-86
2022/12/25 00:06:50;;;;;;;346.20;227.50;;;205.10;2252.80;;;;;;4957579;28;20050;-88
2022/12/25 00:09:15;;;;;;;409.48;268.80;;;205.10;2252.80;;;;;;4955847;29;20122;-87
2022/12/25 00:11:41;;;;;;;432.15;275.52;;;205.10;2252.80;;;;;;4954407;29;20159;-88
2022/12/25 00:14:07;;;;;;;383.63;245.20;;;205.10;2252.80;;;;;;4954740;29;20579;-87
2022/12/25 00:16:32;;;;;;;383.23;252.55;;;205.10;2252.80;;;;;;4955770;29;20031;-87
2022/12/25 00:18:59;;;;;;;358.02;241.52;;;205.10;2252.80;;;;;;4954662;29;20527;-90
2022/12/25 00:21:26;;;;;;;339.63;220.15;;;205.10;2252.80;;;;;;4955117;29;20031;-88
2022/12/25 00:23:56;;;;;;;293.75;191.68;;;205.10;2252.80;;;;;;4954808;29;20031;-89
2022/12/25 00:26:23;;;;;;;290.27;187.77;;;205.10;2252.80;;;;;;4955811;28;20407;-87
2022/12/25 00:28:53;;;;;;;271.83;173.15;;;205.10;2252.80;;;;;;4954664;29;20031;-90
2022/12/25 00:31:20;;;;;;;410.77;243.13;;;205.10;2252.80;;;;;;4954666;29;20055;-88
2022/12/25 00:33:47;;;;;;;364.70;214.20;;;205.10;2252.80;;;;;;4954657;29;20039;-89
2022/12/25 00:36:15;;;;;;;329.88;198.27;;;205.20;2252.80;;;;;;4954747;29;20023;-90
2022/12/25 00:38:41;;;;;;;409.67;216.63;;;205.10;2252.80;;;;;;4954579;29;20081;-88
2022/12/25 00:41:12;;;;;;;413.20;214.88;;;205.10;2252.80;;;;;;4954819;29;20475;-86
2022/12/25 00:43:40;;;;;;;298.05;162.10;;;205.10;2252.80;;;;;;4954502;28;20042;-88
2022/12/25 00:46:07;;;;;;;293.05;164.63;;;205.10;2252.80;;;;;;4968216;28;20031;-90
2022/12/25 00:48:34;;;;;;;310.25;182.60;;;205.10;2252.80;;;;;;4975030;28;20515;-89
2022/12/25 00:51:03;;;;;;;400.35;249.38;;;205.00;2252.80;;;;;;4974095;28;20364;-90
2022/12/25 00:53:29;;;;;;;381.00;235.05;;;205.00;2252.80;;;;;;4974093;28;20062;-89
2022/12/25 00:56:00;;;;;;;333.55;204.10;;;205.00;2252.80;;;;;;4974294;28;20460;-90
2022/12/25 00:58:28;;;;;;;266.80;174.82;;;205.10;2252.80;;;;;;4973981;28;20034;-89
2022/12/25 01:00:55;;;;;;;266.90;168.80;;;205.10;2252.80;;;;;;4973765;28;20027;-90
2022/12/25 01:03:21;;;;;;;240.70;150.30;;;205.00;2252.80;;;;;;4973950;28;20475;-89
2022/12/25 01:05:56;;;;;;;258.30;163.93;;;205.10;2252.80;;;;;;4973949;28;20126;-90
2022/12/25 01:08:22;;;;;;;225.18;139.27;;;205.10;2252.80;;;;;;4973662;28;20031;-90
2022/12/25 01:11:02;;;;;;;243.40;151.63;;;205.10;2252.80;;;;;;4976096;28;20050;-91
2022/12/25 01:13:29;;;;;;;191.68;110.75;;;205.00;2252.80;;;;;;4976807;28;20042;-89
2022/12/25 01:15:55;;;;;;;185.77;109.53;;;205.00;2252.80;;;;;;4978613;28;20030;-90
2022/12/25 01:18:23;;;;;;;155.40;97.18;;;205.30;2252.80;;;;;;4976925;28;20033;-90
2022/12/25 01:20:49;;;;;;;159.90;94.07;;;205.00;2252.80;;;;;;4976388;28;20436;-89
2022/12/25 01:23:15;;;;;;;179.63;101.78;;;205.00;2252.80;;;;;;4976229;28;20088;-90
2022/12/25 01:25:41;;;;;;;172.98;90.43;;;204.90;2252.80;;;;;;4957484;29;20094;-92
2022/12/25 01:28:07;;;;;;;165.27;86.28;;;204.90;2252.80;;;;;;4957368;29;20039;-90
2022/12/25 01:30:34;;;;;;;191.43;98.40;;;204.90;2252.80;;;;;;4958134;29;20388;-91
2022/12/25 01:33:00;;;;;;;168.07;96.00;;;204.80;2252.80;;;;;;4957911;29;20027;-89
2022/12/25 01:35:25;;;;;;;194.40;101.72;;;204.90;2252.80;;;;;;4957655;29;20173;-89
2022/12/25 01:37:52;;;;;;;189.70;92.18;;;204.90;2252.80;;;;;;4957893;29;20024;-90
2022/12/25 01:40:17;;;;;;;182.10;92.72;;;205.20;2252.80;;;;;;4957673;29;20024;-90
2022/12/25 01:42:43;;;;;;;196.90;94.57;;;204.90;2252.80;;;;;;4957637;29;20460;-89
2022/12/25 01:45:32;;;;;;;170.95;93.57;;;204.90;2252.80;;;;;;4957721;29;20456;-90
2022/12/25 01:48:01;;;;;;;196.75;96.25;;;204.90;2252.80;;;;;;4957604;29;20151;-89
2022/12/25 01:50:27;;;;;;;201.95;97.20;;;204.90;2252.80;;;;;;4957430;29;20054;-89
2022/12/25 01:52:54;;;;;;;180.23;95.28;;;204.90;2252.80;;;;;;4957463;29;20023;-91
2022/12/25 01:55:20;;;;;;;179.02;98.85;;;205.00;2252.80;;;;;;4957402;29;20185;-91
2022/12/25 01:57:46;;;;;;;186.85;95.90;;;204.90;2252.80;;;;;;4957495;29;20054;-89
2022/12/25 02:00:12;;;;;;;194.30;99.40;;;204.90;2252.80;;;;;;4957415;29;20460;-90
2022/12/25 02:02:40;;;;;;;207.23;93.78;;;204.90;2252.80;;;;;;4957039;29;20034;-90
2022/12/25 02:05:11;;;;;;;201.88;101.75;;;204.90;2252.80;;;;;;4957382;29;20075;-90
2022/12/25 02:07:40;;;;;;;206.20;102.47;;;204.80;2252.80;;;;;;4957490;29;20486;-89
2022/12/25 02:10:07;;;;;;;226.45;110.93;;;204.80;2252.80;;;;;;4982726;28;20065;-89
2022/12/25 02:12:34;;;;;;;235.02;116.22;;;180.10;2252.80;;;;;;4979743;28;20451;-91
2022/12/25 02:15:12;;;;;;;195.32;102.82;;;180.10;2252.80;;;;;;4979318;28;20089;-89
2022/12/25 02:17:47;;;;;;;254.27;114.20;;;180.10;2252.80;;;;;;4997160;28;20026;-89
2022/12/25 02:20:34;;;;;;;280.35;108.35;;;180.10;2252.80;;;;;;4980117;28;20374;-90
2022/12/25 02:23:22;;;;;;;197.25;91.35;;;180.00;2252.80;;;;;;4979494;28;20050;-89
2022/12/25 02:26:02;;;;;;;215.27;100.90;;;180.10;2252.80;;;;;;4979602;28;20084;-89
2022/12/25 02:29:03;;;;;;;186.55;91.90;;;180.10;2252.80;;;;;;4979518;28;20026;-91
2022/12/25 02:31:58;;;;;;;237.48;109.43;;;180.10;2252.80;;;;;;4979260;28;20127;-89
2022/12/25 02:34:33;;;;;;;197.05;98.05;;;180.10;2252.80;;;;;;4979438;28;20467;-88
2022/12/25 02:37:14;;;;;;;196.90;95.15;;;180.10;2252.80;;;;;;4962079;28;20467;-89
2022/12/25 02:40:04;;;;;;;172.82;87.85;;;180.00;2252.80;;;;;;4959472;28;20027;-88
2022/12/25 03:08:52;;;;;;;186.63;105.40;;;180.10;2252.80;;;;;;4976693;28;20057;-91
2022/12/25 03:11:30;;;;;;;183.20;102.95;;;180.10;2252.80;;;;;;4971859;28;20058;-90
2022/12/25 03:16:49;;;;;;;206.15;120.60;;;180.10;2252.80;;;;;;4975478;28;20035;-89
2022/12/25 03:16:49;;;;;;;210.40;122.82;;;180.10;2252.80;;;;;;4976236;28;20067;-90
2022/12/25 03:27:38;;;;;;;197.02;107.53;;;180.10;2252.80;;;;;;4976284;28;20033;-90
2022/12/25 03:32:48;;;;;;;152.50;82.70;;;180.10;2252.80;;;;;;4976133;28;20502;-89
2022/12/25 03:35:25;;;;;;;176.50;88.07;;;180.10;2252.80;;;;;;4974990;28;20039;-90
2022/12/25 04:36:55;;;;;;;615.90;164.82;;;180.10;2252.80;;;;;;4959459;28;20035;-90
2022/12/25 04:39:21;;;;;;;366.23;137.27;;;180.10;2252.80;;;;;;4954536;29;20388;-91
2022/12/25 04:41:47;;;;;;;599.00;172.07;;;180.10;2252.80;;;;;;4953967;29;20059;-90
2022/12/25 04:44:12;;;;;;;260.60;120.88;;;180.10;2252.80;;;;;;4954544;28;20031;-89
2022/12/25 04:46:38;;;;;;;213.48;99.65;;;180.10;2252.80;;;;;;4958673;29;20024;-90
2022/12/25 04:49:04;;;;;;;416.52;117.47;;;180.10;2252.80;;;;;;4959055;29;20027;-92
2022/12/25 04:51:30;;;;;;;378.10;87.72;;;180.10;2252.80;;;;;;4965712;28;20026;-91
2022/12/25 04:53:55;;;;;;;538.42;109.88;;;180.10;2252.80;;;;;;4977703;28;20043;-88
2022/12/25 04:56:21;;;;;;;180.32;78.28;;;180.10;2252.80;;;;;;4977466;28;20478;-89
2022/12/25 04:58:48;;;;;;;203.23;79.25;;;180.10;2252.80;;;;;;4977694;28;20471;-89
2022/12/25 05:01:14;;;;;;;205.20;82.60;;;180.00;2252.80;;;;;;4978449;28;20387;-90
2022/12/25 05:03:40;;;;;;;144.95;70.25;;;180.10;2252.80;;;;;;4978131;28;20027;-91
2022/12/25 05:06:06;;;;;;;423.80;97.22;;;180.10;2252.80;;;;;;4977860;28;20023;-88
2022/12/25 05:08:33;;;;;;;411.67;91.18;;;180.00;2252.80;;;;;;4977871;28;20033;-89
2022/12/25 05:11:06;;;;;;;219.55;74.82;;;180.10;2252.80;;;;;;4977461;28;20054;-89
2022/12/25 05:13:31;;;;;;;165.65;73.78;;;180.10;2252.80;;;;;;4977406;28;20115;-90
2022/12/25 05:15:57;;;;;;;521.13;107.43;;;180.10;2252.80;;;;;;4977667;28;20030;-88
2022/12/25 05:18:23;;;;;;;329.60;97.28;;;180.10;2252.80;;;;;;4977815;28;20077;-90
2022/12/25 05:20:55;;;;;;;215.18;86.63;;;180.10;2252.80;;;;;;4977762;28;20030;-89
2022/12/25 05:23:21;;;;;;;189.18;83.95;;;180.10;2252.80;;;;;;4978238;28;20038;-90
2022/12/25 05:25:47;;;;;;;210.20;87.80;;;180.10;2252.80;;;;;;4977595;28;20030;-89
2022/12/25 05:28:13;;;;;;;208.13;88.40;;;204.80;2252.80;;;;;;4977612;28;20023;-89
2022/12/25 05:30:39;;;;;;;236.35;87.32;;;204.80;2252.80;;;;;;4977265;28;20030;-88
2022/12/25 05:33:05;;;;;;;264.48;93.65;;;204.80;2252.80;;;;;;4977291;28;20034;-90
2022/12/25 05:35:31;;;;;;;259.83;92.32;;;204.80;2252.80;;;;;;4977407;28;20121;-90
2022/12/25 05:37:56;;;;;;;258.63;88.35;;;204.80;2252.80;;;;;;4977291;28;20054;-89
2022/12/25 05:40:22;;;;;;;197.73;79.03;;;180.10;2252.80;;;;;;4977251;28;20027;-88
2022/12/25 05:42:48;;;;;;;175.32;78.60;;;180.10;2252.80;;;;;;4976975;28;20031;-89
2022/12/25 05:45:14;;;;;;;157.05;70.32;;;180.10;2252.80;;;;;;4974790;28;20030;-90
2022/12/25 05:47:40;;;;;;;173.82;74.70;;;180.00;2252.80;;;;;;4977192;28;20378;-89
2022/12/25 05:50:06;;;;;;;126.32;59.22;;;180.00;2252.80;;;;;;4976329;28;20023;-89
2022/12/25 05:52:33;;;;;;;152.73;62.55;;;180.00;2252.80;;;;;;4976970;28;20125;-90
2022/12/25 05:54:59;;;;;;;124.90;59.35;;;180.00;2252.80;;;;;;4976949;28;20431;-89
2022/12/25 05:57:29;;;;;;;135.13;63.30;;;180.00;2252.80;;;;;;4976642;28;20033;-91
2022/12/25 05:59:56;;;;;;;215.75;73.35;;;180.10;2252.80;;;;;;4977617;28;20455;-90
2022/12/25 06:02:23;;;;;;;326.73;106.50;;;180.10;2252.80;;;;;;4977166;28;20486;-89
2022/12/25 06:04:48;;;;;;;181.02;67.82;;;180.00;2252.80;;;;;;4977190;28;20039;-90
2022/12/25 06:07:14;;;;;;;403.25;82.90;;;179.90;2252.80;;;;;;4977001;28;20364;-87
2022/12/25 06:09:40;;;;;;;178.93;65.65;;;179.90;2252.80;;;;;;4976417;28;20101;-89
2022/12/25 06:12:06;;;;;;;164.68;61.75;;;179.90;2252.80;;;;;;4961010;28;20038;-89
2022/12/25 06:14:32;;;;;;;310.42;78.45;;;180.00;2252.80;;;;;;4960129;28;20179;-90
2022/12/25 06:16:58;;;;;;;131.65;55.88;;;180.00;2252.80;;;;;;4960727;28;20026;-90
2022/12/25 06:19:24;;;;;;;303.95;67.18;;;180.00;2252.80;;;;;;4960185;28;20038;-89
2022/12/25 06:21:54;;;;;;;320.98;65.82;;;179.90;2252.80;;;;;;4960343;28;20148;-90
2022/12/25 06:24:21;;;;;;;316.83;68.07;;;179.90;2252.80;;;;;;4960687;28;20098;-89
2022/12/25 06:26:47;;;;;;;429.50;90.65;;;179.70;2252.80;;;;;;4960513;28;20054;-88
2022/12/25 06:29:14;;;;;;;207.70;64.93;;;179.70;2252.80;;;;;;4960346;28;20054;-91
2022/12/25 06:31:39;;;;;;;267.55;71.43;;;179.60;2252.80;;;;;;4960262;28;20027;-89
2022/12/25 06:34:05;;;;;;;275.73;81.22;;;179.70;2252.80;;;;;;4960182;28;20035;-89
2022/12/25 06:36:31;;;;;;;317.60;83.93;;;179.60;2252.80;;;;;;4959834;28;20077;-88
2022/12/25 06:38:59;;;;;;;258.80;94.75;;;179.70;2252.80;;;;;;4960132;28;20027;-90
2022/12/25 06:41:27;;;;;;;379.83;118.13;;;179.70;2252.80;;;;;;4960142;28;20038;-89
2022/12/25 06:43:58;;;;;;;255.98;106.00;;;179.70;2252.80;;;;;;4960040;28;20034;-89
2022/12/25 06:46:26;;;;;;;266.63;111.00;;;179.80;2252.80;;;;;;4960006;28;20035;-89
2022/12/25 06:48:52;;;;;;;210.18;102.20;;;179.80;2252.80;;;;;;4960061;28;20026;-88
2022/12/25 06:51:23;;;;;;;211.38;103.38;;;179.90;2252.80;;;;;;4959813;28;20027;-90
2022/12/25 06:53:50;;;;;;;299.63;104.05;;;179.90;2252.80;;;;;;4959991;28;20380;-90
2022/12/25 06:56:19;;;;;;;262.45;86.57;;;179.90;2252.80;;;;;;4959943;28;20054;-89
2022/12/25 06:58:47;;;;;;;291.08;94.07;;;179.80;2252.80;;;;;;4959396;28;20035;-90
2022/12/25 07:01:32;;;;;;;204.65;86.30;;;179.90;2252.80;;;;;;4959905;28;20022;-90
2022/12/25 07:04:03;;;;;;;176.65;71.30;;;179.90;2252.80;;;;;;4959672;28;20173;-91
2022/12/25 07:06:28;;;;;;;229.88;68.93;;;179.90;2252.80;;;;;;4959944;28;20391;-89
2022/12/25 07:08:55;;;;;;;178.90;100.53;;;179.90;2252.80;;;;;;4958817;28;20034;-90
2022/12/25 07:11:21;;;;;;;210.90;117.72;;;180.00;2252.80;;;;;;4972203;28;20455;-89
2022/12/25 07:13:47;;;;;;;203.70;108.80;;;180.00;2252.80;;;;;;4975758;28;20030;-90
2022/12/25 07:16:13;;;;;;;154.88;83.50;;;179.90;2252.80;;;;;;4975642;28;20027;-89
2022/12/25 07:18:40;;;;;;;196.30;109.50;;;180.10;2252.80;;;;;;4975564;28;20037;-89
2022/12/25 07:21:14;;;;;;;296.58;169.35;;;180.10;2252.80;;;;;;4975617;28;20027;-90
2022/12/25 07:23:41;;;;;;;206.57;97.88;;;180.10;2252.80;;;;;;4975746;28;20089;-89
2022/12/25 07:26:08;;;;;;;123.75;64.72;;;180.10;2252.80;;;;;;4975592;28;20380;-89
2022/12/25 07:28:34;;;;;;;156.95;81.75;;;179.90;2252.80;;;;;;4975431;28;20049;-88
2022/12/25 07:31:01;;;;;;;159.75;66.28;;;179.90;2252.80;;;;;;4975497;28;20555;-89
2022/12/25 07:33:27;;;;;;;164.35;62.00;;;179.90;2252.80;;;;;;4975408;28;20400;-88
2022/12/25 07:35:53;;;;;;;135.85;59.80;;;179.90;2252.80;;;;;;4971671;28;20023;-89
2022/12/25 07:38:19;;;;;;;108.30;58.20;;;179.90;2252.80;;;;;;4975002;28;20035;-85
2022/12/25 07:40:45;;;;;;;163.68;88.22;;;180.00;2252.80;;;;;;4974651;28;20031;-88
2022/12/25 07:43:11;;;;;;;180.90;93.03;;;180.10;2252.80;;;;;;4975003;28;20023;-92
2022/12/25 07:45:37;;;;;;;233.07;101.53;;;180.10;2252.80;;;;;;4958811;28;20027;-91
2022/12/25 07:48:04;;;;;;;151.30;77.03;;;204.80;2252.80;;;;;;4955325;29;20034;-86
2022/12/25 07:50:29;;;;;;;216.77;75.82;;;204.80;2252.80;;;;;;4955577;29;20490;-87
2022/12/25 07:52:55;;;;;;;194.73;73.68;;;204.80;2252.80;;;;;;4955778;29;20027;-88
2022/12/25 07:55:21;;;;;;;220.57;78.78;;;204.80;2252.80;;;;;;4957725;28;20368;-88
2022/12/25 07:57:47;;;;;;;210.95;70.40;;;204.90;2252.80;;;;;;4975181;28;20109;-88
2022/12/25 08:00:13;;;;;;;193.32;68.97;;;204.90;2252.80;;;;;;4974895;28;20136;-89
2022/12/25 08:02:39;;;;;;;159.65;56.05;;;205.00;2252.80;;;;;;4974730;28;20034;-89
2022/12/25 08:05:06;;;;;;;108.63;44.35;;;205.00;2252.80;;;;;;4974453;28;20117;-89
2022/12/25 08:07:32;;;;;;;233.40;57.85;;;205.00;2252.80;;;;;;4974470;28;20023;-89
2022/12/25 08:09:57;;;;;;;250.00;68.28;;;205.00;2252.80;;;;;;4974605;28;20047;-90
2022/12/25 08:12:24;;;;;;;108.28;41.22;;;205.00;2252.80;;;;;;4974936;28;20057;-89
2022/12/25 08:14:50;;;;;;;155.98;42.00;;;205.00;2252.80;;;;;;4973707;28;20117;-89
2022/12/25 08:17:16;;;;;;;175.32;57.55;;;205.00;2252.80;;;;;;4974391;28;20026;-88
2022/12/25 08:19:41;;;;;;;154.48;59.33;;;205.00;2252.80;;;;;;4973802;28;20065;-92
2022/12/25 08:22:07;;;;;;;213.93;61.13;;;205.10;2252.80;;;;;;4974245;28;20030;-87
2022/12/25 08:24:33;;;;;;;269.42;47.42;;;205.10;2252.80;;;;;;4974298;28;20034;-92
2022/12/25 08:26:59;;;;;;;194.60;54.33;;;205.00;2252.80;;;;;;4974186;28;20035;-88
2022/12/25 08:29:24;;;;;;;188.73;61.50;;;205.00;2252.80;;;;;;4974559;28;20027;-87
2022/12/25 08:31:50;;;;;;;142.05;51.78;;;205.00;2252.80;;;;;;4974404;28;20383;-89
2022/12/25 08:34:16;;;;;;;204.20;75.07;;;205.00;2252.80;;;;;;4974330;28;20364;-89
2022/12/25 08:36:42;;;;;;;285.17;103.05;;;204.90;2252.80;;;;;;4974422;28;20491;-91
2022/12/25 08:39:07;;;;;;;349.35;114.68;;;205.00;2252.80;;;;;;4974344;28;20030;-87
2022/12/25 08:41:36;;;;;;;397.27;113.45;;;205.00;2252.80;;;;;;4974487;28;20031;-90
2022/12/25 08:44:03;;;;;;;209.98;85.97;;;205.10;2252.80;;;;;;4974614;28;20121;-88
2022/12/25 08:46:29;;;;;;;149.25;65.72;;;205.10;2252.80;;;;;;4974402;28;20439;-90
2022/12/25 08:48:55;;;;;;;225.85;74.55;;;205.20;2252.80;;;;;;4974312;28;20029;-87
2022/12/25 08:51:22;;;;;;;231.55;79.78;;;205.20;2252.80;;;;;;4974337;28;20033;-88
2022/12/25 08:53:50;;;;;;;131.60;64.35;;;205.20;2252.80;;;;;;4974230;28;20031;-91
2022/12/25 08:56:17;;;;;;;134.85;66.38;;;205.30;2252.80;;;;;;4974075;28;20125;-92
2022/12/25 08:58:44;;;;;;;149.20;67.07;;;205.40;2252.80;;;;;;4974409;28;20026;-92
2022/12/25 09:01:11;;;;;;;139.70;71.35;;;205.40;2252.80;;;;;;4974544;28;20082;-91
2022/12/25 09:03:37;;;;;;;117.97;60.33;;;205.40;2252.80;;;;;;4974035;28;20038;-92
2022/12/25 09:06:09;;;;;;;97.03;50.00;;;205.50;2252.80;;;;;;4974245;28;20030;-89
2022/12/25 09:08:36;;;;;;;88.25;42.80;;;205.50;2252.80;;;;;;4974210;28;20034;-90
2022/12/25 09:11:03;;;;;;;106.80;51.92;;;205.40;2252.80;;;;;;4973899;28;20483;-91
2022/12/25 09:13:29;;;;;;;99.82;49.88;;;205.20;2252.80;;;;;;4971429;28;20106;-88
2022/12/25 09:15:55;;;;;;;97.70;51.95;;;205.40;2252.80;;;;;;4954719;29;20066;-92
2022/12/25 09:18:21;;;;;;;146.13;82.60;;;205.40;2252.80;;;;;;4954701;29;20072;-89
2022/12/25 09:20:46;;;;;;;189.27;125.82;;;205.50;2252.80;;;;;;4954865;29;20169;-88
2022/12/25 09:23:12;;;;;;;189.80;129.80;;;205.30;2252.80;;;;;;4954849;29;20122;-88
2022/12/25 09:25:38;;;;;;;168.77;108.53;;;205.40;2252.80;;;;;;4954445;29;20031;-91
2022/12/25 09:28:04;;;;;;;161.85;113.28;;;205.40;2252.80;;;;;;4954599;29;20034;-89
2022/12/25 09:30:29;;;;;;;91.85;58.05;;;205.40;2252.80;;;;;;4954686;28;20037;-91
2022/12/25 09:32:55;;;;;;;89.00;59.60;;;205.30;2252.80;;;;;;4958424;29;20031;-91
2022/12/25 09:35:21;;;;;;;83.20;54.78;;;205.40;2252.80;;;;;;4958173;29;20467;-90
2022/12/25 09:37:47;;;;;;;87.07;52.70;;;205.40;2252.80;;;;;;4957902;29;20031;-89
2022/12/25 09:40:18;;;;;;;72.57;44.28;;;205.50;2252.80;;;;;;4958205;29;20110;-89
2022/12/25 09:42:44;;;;;;;72.30;43.97;;;205.60;2252.80;;;;;;4958073;29;20032;-90
2022/12/25 09:45:27;;;;;;;85.55;45.50;;;205.60;2252.80;;;;;;4957913;29;20051;-90
2022/12/25 09:47:55;;;;;;;75.15;42.67;;;205.60;2252.80;;;;;;4957981;29;20031;-89
2022/12/25 09:50:48;;;;;;;69.93;42.38;;;230.60;2252.80;;;;;;4958217;29;20431;-91
2022/12/25 09:53:23;;;;;;;64.93;42.15;;;205.60;2252.80;;;;;;4957895;29;20467;-89
2022/12/25 09:56:02;;;;;;;60.97;39.00;;;205.70;2252.80;;;;;;4957931;29;20499;-90
2022/12/25 09:58:29;;;;;;;73.80;49.67;;;205.70;2252.80;;;;;;4957820;29;20031;-90
2022/12/25 10:01:43;;;;;;;73.88;46.20;;;230.40;2252.80;;;;;;4963827;28;20023;-90
2022/12/25 10:04:30;;;;;;;82.80;49.60;;;230.40;2252.80;;;;;;4943363;28;20039;-89
2022/12/25 10:07:25;;;;;;;103.25;56.70;;;230.40;2252.80;;;;;;4976959;28;20166;-90
2022/12/25 10:10:09;;;;;;;101.10;56.40;;;230.40;2252.80;;;;;;4975724;28;20077;-91
2022/12/25 10:13:22;;;;;;;84.32;49.28;;;230.40;2252.80;;;;;;4960696;28;20027;-91
2022/12/25 10:16:04;;;;;;;73.03;48.83;;;230.40;2252.80;;;;;;4960491;28;20039;-89
2022/12/25 10:18:33;;;;;;;79.38;47.33;;;230.50;2252.80;;;;;;4960485;28;20042;-89
2022/12/25 10:21:02;;;;;;;73.93;45.80;;;230.50;2252.80;;;;;;4960836;28;20076;-88
2022/12/25 10:23:36;;;;;;;72.95;48.40;;;230.50;2252.80;;;;;;4960481;28;20023;-89
2022/12/25 10:26:10;;;;;;;75.72;48.65;;;230.50;2252.80;;;;;;4960438;28;20031;-90
2022/12/25 10:28:44;;;;;;;77.75;47.20;;;230.50;2252.80;;;;;;4960546;28;20050;-89
2022/12/25 10:31:21;;;;;;;63.85;38.78;;;230.50;2252.80;;;;;;4960468;28;20080;-88
2022/12/25 10:33:49;;;;;;;91.80;60.45;;;230.50;2252.80;;;;;;4960245;28;20031;-90
2022/12/25 10:36:22;;;;;;;97.45;64.40;;;230.40;2252.80;;;;;;4960324;28;20058;-90
2022/12/25 10:38:48;;;;;;;60.40;40.72;;;230.50;2252.80;;;;;;4960168;28;20026;-88
2022/12/25 10:41:50;;;;;;;52.72;36.97;;;230.40;2252.80;;;;;;4960199;28;20027;-89
2022/12/25 10:44:19;;;;;;;73.00;46.80;;;205.70;2252.80;;;;;;4959474;28;20031;-89
2022/12/25 10:46:50;;;;;;;52.38;37.55;;;205.70;2252.80;;;;;;4953367;28;20464;-91
2022/12/25 10:49:19;;;;;;;85.15;56.17;;;205.60;2252.80;;;;;;4946009;29;20027;-91
2022/12/25 10:51:45;;;;;;;92.05;54.65;;;205.60;2252.80;;;;;;4941638;29;20034;-91
2022/12/25 10:54:24;;;;;;;69.82;42.08;;;205.60;2252.80;;;;;;4940905;29;20028;-89
2022/12/25 10:56:57;;;;;;;56.95;38.28;;;205.70;2252.80;;;;;;4940751;29;20035;-90
2022/12/25 10:59:28;;;;;;;51.55;35.45;;;205.60;2252.80;;;;;;4940529;29;20028;-90
2022/12/25 11:01:55;;;;;;;52.25;34.08;;;205.70;2252.80;;;;;;4940490;29;20050;-88
2022/12/25 11:04:27;;;;;;;49.72;33.03;;;230.40;2252.80;;;;;;4940366;29;20035;-90
2022/12/25 11:07:16;;;;;;;49.08;31.92;;;230.40;2252.80;;;;;;4940365;29;20023;-89
2022/12/25 11:09:53;;;;;;;55.03;36.08;;;230.50;2252.80;;;;;;4940089;28;20499;-88
2022/12/25 11:12:23;;;;;;;54.13;35.90;;;230.50;2252.80;;;;;;4944271;28;20027;-88
2022/12/25 11:15:01;;;;;;;107.75;54.42;;;230.40;2252.80;;;;;;4948804;28;20527;-88
2022/12/25 11:17:27;;;;;;;52.15;38.15;;;230.40;2252.80;;;;;;4951234;28;20027;-88
2022/12/25 11:19:58;;;;;;;43.70;28.42;;;205.70;2252.80;;;;;;4942882;29;20158;-90
2022/12/25 11:22:25;;;;;;;61.28;39.03;;;205.70;2252.80;;;;;;4957126;29;20038;-87
2022/12/25 11:24:51;;;;;;;56.45;39.08;;;205.70;2252.80;;;;;;4946912;28;20023;-85
2022/12/25 11:27:29;;;;;;;66.80;45.00;;;205.70;2252.80;;;;;;4964363;28;20016;-87
2022/12/25 11:29:58;;;;;;;63.83;42.72;;;230.40;2252.80;;;;;;4963961;28;20011;-87
2022/12/25 11:32:40;;;;;;;84.35;56.35;;;230.40;2252.80;;;;;;4960713;29;20046;-88
2022/12/25 11:35:13;;;;;;;63.95;42.00;;;230.50;2252.80;;;;;;4940782;28;20035;-90
2022/12/25 11:37:48;;;;;;;71.32;42.60;;;230.50;2252.80;;;;;;4950935;28;20086;-89
2022/12/25 11:40:22;;;;;;;68.55;44.45;;;230.50;2252.80;;;;;;4946317;28;20026;-89
2022/12/25 11:42:56;;;;;;;64.50;41.10;;;230.50;2252.80;;;;;;4955906;28;20039;-88
2022/12/25 11:45:51;;;;;;;70.95;46.47;;;230.50;2252.80;;;;;;4944694;28;20449;-88
2022/12/25 11:48:32;;;;;;;74.43;44.30;;;230.50;2252.80;;;;;;4944985;28;20041;-88
2022/12/25 11:51:01;;;;;;;74.25;46.03;;;230.40;2252.80;;;;;;4947918;28;20077;-89
2022/12/25 11:53:47;;;;;;;83.55;50.25;;;230.40;2252.80;;;;;;4947641;28;20023;-90
2022/12/25 11:56:19;;;;;;;83.97;53.20;;;230.50;2252.80;;;;;;4949693;28;20383;-86
2022/12/25 11:58:50;;;;;;;73.07;47.40;;;230.50;2252.80;;;;;;4948249;28;20034;-89
2022/12/25 12:01:29;;;;;;;87.78;54.05;;;230.50;2252.80;;;;;;4952051;28;20162;-88
2022/12/25 12:03:57;;;;;;;86.95;53.65;;;230.50;2252.80;;;;;;4949335;28;20034;-89
2022/12/25 12:06:33;;;;;;;84.80;54.85;;;230.50;2252.80;;;;;;4947879;28;20411;-89
2022/12/25 12:09:22;;;;;;;86.22;54.53;;;230.60;2252.80;;;;;;4942209;28;20027;-88
2022/12/25 12:11:59;;;;;;;99.45;57.72;;;230.60;2252.80;;;;;;4928099;29;20369;-88
2022/12/25 12:14:51;;;;;;;107.63;67.43;;;230.60;2252.80;;;;;;4923304;29;20451;-85
2022/12/25 12:17:18;;;;;;;93.47;57.45;;;230.50;2252.80;;;;;;4929005;29;20035;-86
2022/12/25 12:19:44;;;;;;;74.45;45.75;;;230.50;2252.80;;;;;;4955909;29;20027;-87
2022/12/25 12:22:28;;;;;;;79.32;49.05;;;230.50;2252.80;;;;;;4938776;29;20055;-87
2022/12/25 12:25:15;;;;;;;73.72;48.45;;;230.50;2252.80;;;;;;4938862;29;20392;-88
2022/12/25 12:27:41;;;;;;;72.22;42.92;;;230.40;2252.80;;;;;;4938972;29;20031;-87
2022/12/25 12:30:22;;;;;;;70.22;40.20;;;230.40;2252.80;;;;;;4939189;29;20027;-88
2022/12/25 12:32:59;;;;;;;78.60;44.55;;;230.40;2252.80;;;;;;4939031;29;20089;-88
2022/12/25 12:35:29;;;;;;;77.80;45.22;;;230.40;2252.80;;;;;;4939177;29;20494;-90
2022/12/25 12:38:05;;;;;;;90.55;52.25;;;230.40;2252.80;;;;;;4938671;29;20034;-90
2022/12/25 12:40:33;;;;;;;99.10;60.60;;;230.40;2252.80;;;;;;4925169;29;20032;-88
2022/12/25 12:42:59;;;;;;;96.47;59.65;;;230.40;2252.80;;;;;;4920118;29;20039;-88
2022/12/25 12:45:29;;;;;;;82.65;52.90;;;230.40;2252.80;;;;;;4926771;29;20038;-88
2022/12/25 12:47:56;;;;;;;82.70;50.28;;;230.40;2252.80;;;;;;4939086;29;20031;-90
2022/12/25 12:50:40;;;;;;;65.00;43.60;;;205.50;2252.80;;;;;;4939320;29;20031;-88
2022/12/25 12:53:21;;;;;;;71.22;42.75;;;230.40;2252.80;;;;;;4939509;29;20472;-87
2022/12/25 12:55:47;;;;;;;74.80;49.13;;;230.40;2252.80;;;;;;4928051;29;20060;-86
2022/12/25 12:58:34;;;;;;;80.57;52.45;;;205.70;2252.80;;;;;;4936449;29;20035;-85
2022/12/25 13:01:27;;;;;;;105.05;67.53;;;205.70;2252.80;;;;;;4925597;29;20038;-89
2022/12/25 13:04:33;;;;;;;104.22;71.38;;;205.70;2252.80;;;;;;4934159;29;20086;-89
2022/12/25 13:07:27;;;;;;;74.07;46.88;;;205.70;2252.80;;;;;;4941163;29;20027;-89
2022/12/25 13:09:55;;;;;;;79.55;44.08;;;205.70;2252.80;;;;;;4948093;28;20411;-88
2022/12/25 13:12:22;;;;;;;84.82;49.30;;;205.70;2252.80;;;;;;4976563;28;20023;-88
2022/12/25 13:14:49;;;;;;;99.75;53.20;;;205.70;2252.80;;;;;;4961823;28;20031;-87
2022/12/25 13:17:20;;;;;;;113.53;61.13;;;205.70;2252.80;;;;;;4955665;29;20531;-88
2022/12/25 13:19:49;;;;;;;118.50;69.57;;;205.70;2252.80;;;;;;4956435;29;20027;-89
2022/12/25 13:22:24;;;;;;;101.82;60.90;;;205.70;2252.80;;;;;;4957914;29;20027;-89
2022/12/25 13:24:55;;;;;;;83.43;53.58;;;230.40;2252.80;;;;;;4958317;29;20035;-88
2022/12/25 13:27:24;;;;;;;89.10;56.15;;;230.40;2252.80;;;;;;4958164;29;20035;-89
2022/12/25 13:29:50;;;;;;;106.20;67.43;;;230.40;2252.80;;;;;;4957756;29;20031;-91
2022/12/25 13:32:32;;;;;;;126.97;72.30;;;205.70;2252.80;;;;;;4957939;29;20027;-88
2022/12/25 13:34:59;;;;;;;116.07;65.45;;;205.70;2252.80;;;;;;4957933;29;20070;-89
2022/12/25 13:37:27;;;;;;;110.65;64.55;;;230.60;2252.80;;;;;;4957556;29;20086;-88
2022/12/25 13:40:03;;;;;;;110.63;62.50;;;205.70;2252.80;;;;;;4957877;29;20031;-90
2022/12/25 13:42:32;;;;;;;94.10;56.78;;;205.70;2252.80;;;;;;4957733;29;20031;-88
2022/12/25 13:45:13;;;;;;;98.85;59.95;;;205.70;2252.80;;;;;;4957759;29;20032;-91